Hewanorra, St. Lucia

1:07 AM AST on May 29, 2015 (GMT -0400)
Hewanorra International | | Change Station
CLOSE
Current Station
Airport
Location: Hewanorra,
Elevation: 10 ft
Nearby Weather Stations

Elev 10 ft 13.75 °N, 60.95 °W | Updated 1 hour ago

Light Rain Showers
Light Showers Rain
81 °F
Feels Like 87 °F
N
21
Wind Variable Wind from ENE

Today
High -- | Low -- °F
--% Chance of Precip.
Yesterday
High -- | Low -- °F
Precip. -- in
5:35 AM 6:27 PM
Waxing Gibbous, 81% visible
Pressure 29.98 in
Visibility 6.2 miles
Clouds Mostly Cloudy 2300 ft
Mostly Cloudy 8000 ft
Heat Index 87 °F
Dew Point 77 °F
Humidity 89%
Rainfall 0.00 in
Snow Depth Not available.
UV 0 out of 12
Pollen Not available.
Air Quality Not available.
Flu Activity Not available.
METAR TLPL 290400Z 07018KT 9999 -SHRA BKN023 BKN080 27/25 Q1015 TEMPO SHRA

More Conditions Fewer Conditions

Pressure 29.98 in
Visibility 6.2 miles
Clouds Mostly Cloudy 2300 ft
Mostly Cloudy 8000 ft
Heat Index 87 °F
Dew Point 77 °F
Humidity 89%
Rainfall 0.00 in
Snow Depth Not available.
UV 0 out of 12
Pollen Not available.
Air Quality Not available.
Flu Activity Not available.
METAR TLPL 290400Z 07018KT 9999 -SHRA BKN023 BKN080 27/25 Q1015 TEMPO SHRA

More Conditions Fewer Conditions

10-Day Weather Forecast

Almanac

Astronomy

May. 29, 2015 Rise Set
Actual Time
Civil Twilight
Nautical Twilight
Astronomical Twilight
Moon
Length of Visible Light
Length of Day
Tomorrow will be .
, % of the Moon is Illuminated

Today's Extremes

Country Highs Country Lows

Community

WunderPhotos

Upload Photos

1,825,211 photos uploaded!

WunderBlogs® & News

Nearby

Air Quality

  Air Quality AQ Index Pollutant
Not available.

Snow Depth

Station Depth Elevation

Earthquake Activity

City Distance Mag. Time & Date
Minimum magnitude displayed is 2.5.

Coastal Water Temperatures

Place Temperature

Stations

Nearby Weather Stations

Station Location Temp. Windchill Dew Point Humidity Wind Precip. Elev Updated Type